Time;durP1;ratioP1;P1;durP2;ratioP2;P2;SDS_P1;SDS_P2;PMS_P1;PMS_P2;Temp;Humidity;BMP_temperature;BMP_pressure;BME280_temperature;BME280_humidity;BME280_pressure;Samples;Min_cycle;Max_cycle;Signal;HPM_P1;HPM_P2
2022/03/22 00:00:19;;;;;;;9.00;3.30;;;;;;;4.12;60.81;100832.55;25114;1315;3026300;-72
2022/03/22 00:02:48;;;;;;;11.10;3.40;;;;;;;4.11;60.68;100833.97;25145;1313;3048948;-68
2022/03/22 00:05:17;;;;;;;9.20;3.50;;;;;;;4.09;60.79;100833.11;25065;1315;3026927;-72
2022/03/22 00:07:47;;;;;;;8.90;2.70;;;;;;;4.03;61.18;100834.21;25072;1315;3069296;-67
2022/03/22 00:10:36;;;;;;;10.30;3.30;;;;;;;4.01;61.07;100830.59;25121;1313;3051757;-68
2022/03/22 00:13:06;;;;;;;14.80;3.00;;;;;;;4.03;61.12;100833.69;25177;1313;3026883;-64
2022/03/22 00:15:36;;;;;;;8.00;3.00;;;;;;;4.05;60.85;100832.65;25057;1313;3026477;-68
2022/03/22 00:18:25;;;;;;;11.10;2.90;;;;;;;3.97;61.17;100832.89;25127;1315;3058592;-69
2022/03/22 00:21:14;;;;;;;12.80;3.60;;;;;;;4.01;61.03;100836.16;25080;1315;3049927;-70
2022/03/22 00:23:44;;;;;;;9.40;4.00;;;;;;;4.00;60.92;100833.22;25163;1315;3026051;-68
2022/03/22 00:26:14;;;;;;;9.20;2.60;;;;;;;3.93;61.28;100829.48;25100;1315;3026536;-69
2022/03/22 00:28:43;;;;;;;12.80;3.90;;;;;;;4.00;60.67;100830.45;25108;1313;3052456;-67
2022/03/22 00:31:12;;;;;;;11.60;2.90;;;;;;;3.97;60.79;100831.86;25149;1313;3027474;-64
2022/03/22 00:33:41;;;;;;;15.10;4.20;;;;;;;3.93;60.90;100835.89;25128;1313;3026289;-69
2022/03/22 00:36:13;;;;;;;10.00;3.10;;;;;;;3.89;61.04;100832.64;25091;1313;3050799;-66
2022/03/22 00:38:43;;;;;;;11.90;3.50;;;;;;;3.87;61.10;100831.44;25187;1315;3027362;-71
2022/03/22 00:41:13;;;;;;;9.40;3.10;;;;;;;3.90;60.99;100831.58;25129;1315;3027255;-69
2022/03/22 00:43:43;;;;;;;14.20;3.30;;;;;;;3.86;61.09;100832.70;25130;1315;3026845;-68
2022/03/22 00:46:12;;;;;;;15.60;3.20;;;;;;;3.82;61.22;100834.98;25118;1315;3026448;-65
2022/03/22 00:48:47;;;;;;;10.10;3.30;;;;;;;3.74;61.47;100832.80;25151;1315;3026540;-69
2022/03/22 00:51:16;;;;;;;12.10;3.50;;;;;;;3.75;61.42;100835.56;25148;1315;3053560;-71
2022/03/22 00:53:47;;;;;;;12.80;3.00;;;;;;;3.80;61.04;100845.23;25109;1313;3026502;-70
2022/03/22 00:56:17;;;;;;;11.30;2.90;;;;;;;3.73;61.28;100837.67;25122;1315;3054140;-70
2022/03/22 01:00:01;;;;;;;13.40;4.30;;;;;;;3.74;61.29;100836.98;25071;1313;3030456;-65
2022/03/22 01:01:35;;;;;;;16.20;2.90;;;;;;;3.62;61.74;100844.19;25094;1313;3056032;-73
2022/03/22 01:04:04;;;;;;;12.00;3.30;;;;;;;3.61;61.63;100840.92;25173;1313;3026859;-69
2022/03/22 01:06:34;;;;;;;10.90;3.60;;;;;;;3.62;61.77;100841.41;25104;1315;3054280;-69
2022/03/22 01:09:04;;;;;;;12.40;3.20;;;;;;;3.63;61.58;100848.17;25123;1313;3026263;-70
2022/03/22 01:11:33;;;;;;;8.90;2.80;;;;;;;3.58;61.99;100855.67;25124;1313;3026409;-70
2022/03/22 01:14:21;;;;;;;7.60;2.80;;;;;;;3.59;61.86;100857.91;25087;1315;3051983;-66
2022/03/22 01:16:53;;;;;;;10.50;2.90;;;;;;;3.59;61.58;100853.41;25158;1315;3026530;-65
2022/03/22 01:20:58;;;;;;;16.50;3.80;;;;;;;3.63;61.80;100848.18;31564;1313;3026043;-70
2022/03/22 01:23:29;;;;;;;17.90;5.00;;;;;;;3.85;60.91;100850.55;25089;1316;3026364;-70
2022/03/22 01:25:59;;;;;;;16.00;4.00;;;;;;;4.09;60.16;100846.45;25103;1316;3027269;-67
2022/03/22 01:28:29;;;;;;;13.20;3.30;;;;;;;3.91;60.62;100846.66;25133;1313;3028421;-67
2022/03/22 01:30:58;;;;;;;11.80;3.40;;;;;;;3.76;60.97;100851.31;25142;1313;3026506;-69
2022/03/22 01:33:27;;;;;;;13.50;3.50;;;;;;;3.65;61.53;100852.49;24071;1313;4521682;-67
2022/03/22 01:35:56;;;;;;;12.30;3.00;;;;;;;3.65;61.19;100853.34;25169;1312;3030079;-68
2022/03/22 01:38:25;;;;;;;16.70;3.50;;;;;;;3.65;61.22;100857.70;25152;1313;3052774;-67
2022/03/22 01:40:54;;;;;;;10.00;2.90;;;;;;;3.60;61.51;100862.77;25191;1313;3027049;-68
2022/03/22 01:43:24;;;;;;;9.20;3.30;;;;;;;3.61;61.29;100864.13;25153;1313;3048025;-65
2022/03/22 01:45:53;;;;;;;15.80;3.70;;;;;;;3.58;61.08;100861.21;25206;1313;3026479;-70
2022/03/22 01:48:22;;;;;;;17.20;3.50;;;;;;;3.57;60.98;100861.91;25275;1313;3028927;-70
2022/03/22 01:50:51;;;;;;;11.70;3.00;;;;;;;3.48;61.72;100868.41;25130;1313;3049654;-66
2022/03/22 01:53:20;;;;;;;10.70;3.20;;;;;;;3.36;62.38;100868.69;25185;1316;3026923;-69
2022/03/22 01:55:51;;;;;;;10.50;3.70;;;;;;;3.37;62.07;100876.98;25152;1313;3070412;-69
2022/03/22 01:58:20;;;;;;;10.50;3.00;;;;;;;3.38;62.03;100877.68;25184;1313;3027525;-64
2022/03/22 02:05:51;;;;;;;13.50;3.40;;;;;;;3.32;62.22;100879.63;25156;1313;3026048;-70
2022/03/22 02:06:34;;;;;;;15.00;3.20;;;;;;;3.24;62.55;100883.16;25151;1313;3059414;-70
2022/03/22 02:09:03;;;;;;;15.30;4.10;;;;;;;3.25;62.56;100885.77;25134;1313;3026932;-68
2022/03/22 02:11:34;;;;;;;10.60;3.20;;;;;;;3.28;61.87;100891.09;25152;1313;3027048;-67
2022/03/22 02:14:05;;;;;;;14.20;3.10;;;;;;;3.27;62.28;100895.27;25197;1313;3026590;-69
2022/03/22 02:16:34;;;;;;;9.90;3.50;;;;;;;3.26;62.18;100895.96;25177;1313;3026931;-64
2022/03/22 02:19:04;;;;;;;10.80;3.10;;;;;;;3.20;62.75;100897.03;25125;1313;3026813;-68
2022/03/22 02:21:33;;;;;;;10.20;3.00;;;;;;;3.11;63.01;100899.52;25129;1313;3026955;-69
2022/03/22 02:24:03;;;;;;;13.60;4.10;;;;;;;3.17;62.60;100903.65;25169;1313;3026136;-66
2022/03/22 02:26:34;;;;;;;13.80;3.20;;;;;;;3.11;63.09;100902.82;25161;1313;3051404;-71
2022/03/22 02:29:03;;;;;;;14.10;3.40;;;;;;;3.08;63.17;100907.16;25123;1312;3026979;-67
2022/03/22 02:31:33;;;;;;;14.80;3.30;;;;;;;3.11;62.87;100910.09;25185;1313;3026881;-64
2022/03/22 02:34:03;;;;;;;14.00;3.40;;;;;;;3.12;62.46;100908.52;25193;1312;3049155;-68
2022/03/22 02:36:32;;;;;;;13.90;3.30;;;;;;;3.07;63.06;100913.23;25179;1313;3026941;-64
2022/03/22 02:39:01;;;;;;;13.50;2.60;;;;;;;3.09;62.69;100926.55;25184;1313;3026568;-68
2022/03/22 02:41:30;;;;;;;11.70;3.10;;;;;;;3.07;62.70;100930.04;25162;1313;3050132;-68
2022/03/22 02:43:59;;;;;;;13.40;3.70;;;;;;;3.00;63.00;100933.35;25146;1313;3027973;-69
2022/03/22 02:46:28;;;;;;;10.80;2.90;;;;;;;2.96;63.37;100935.47;25185;1313;3070849;-66
2022/03/22 02:48:57;;;;;;;13.90;3.10;;;;;;;2.96;63.13;100940.48;25130;1313;3028148;-67
2022/03/22 02:51:26;;;;;;;8.80;3.20;;;;;;;2.95;62.99;100941.70;25178;1313;3052397;-69
2022/03/22 02:53:56;;;;;;;13.10;3.60;;;;;;;2.96;62.77;100944.13;25127;1313;3026299;-67
2022/03/22 02:56:25;;;;;;;13.50;3.40;;;;;;;2.96;62.76;100943.60;25137;1313;3026415;-70
2022/03/22 02:58:54;;;;;;;8.90;3.00;;;;;;;2.94;62.95;100951.74;25200;1313;3026559;-66
2022/03/22 03:01:24;;;;;;;17.00;3.60;;;;;;;2.92;63.03;100947.95;25144;1313;3067630;-68
2022/03/22 03:03:53;;;;;;;12.30;3.40;;;;;;;2.80;63.78;100950.60;25124;1313;3026569;-67
2022/03/22 03:06:22;;;;;;;13.20;3.60;;;;;;;2.73;64.04;100956.52;25162;1313;3026539;-66
2022/03/22 03:09:10;;;;;;;13.90;3.70;;;;;;;2.73;63.81;100957.38;25133;1313;3071076;-69
2022/03/22 03:11:40;;;;;;;11.90;3.40;;;;;;;2.71;63.74;100956.88;25123;1313;3026860;-66
2022/03/22 03:16:56;;;;;;;14.30;5.00;;;;;;;2.57;65.00;100972.50;25194;1313;3071505;-67
2022/03/22 03:19:25;;;;;;;14.10;3.80;;;;;;;2.52;64.76;100975.30;25147;1313;3026523;-69
2022/03/22 03:21:54;;;;;;;13.40;3.80;;;;;;;2.56;64.59;100978.21;25141;1313;3053589;-68
2022/03/22 03:24:24;;;;;;;13.50;4.00;;;;;;;2.53;64.48;100984.10;25120;1313;3026125;-69
2022/03/22 03:26:53;;;;;;;15.50;3.70;;;;;;;2.51;64.81;100987.23;25156;1313;3055628;-69
2022/03/22 03:29:23;;;;;;;14.40;4.20;;;;;;;2.47;64.99;100986.73;25141;1313;3027311;-67
2022/03/22 03:31:52;;;;;;;13.70;4.00;;;;;;;2.43;65.23;100987.06;25161;1313;3027083;-69
2022/03/22 03:34:23;;;;;;;12.30;4.30;;;;;;;2.43;64.99;100989.84;25142;1313;3052883;-69
2022/03/22 03:36:52;;;;;;;21.00;5.60;;;;;;;2.44;65.02;100989.84;25133;1313;3026931;-67
2022/03/22 03:39:21;;;;;;;16.00;4.90;;;;;;;2.41;65.12;100995.02;25186;1313;3051604;-68
2022/03/22 03:41:55;;;;;;;14.40;4.90;;;;;;;2.36;65.65;100995.58;25144;1313;3026780;-66
2022/03/22 03:47:22;;;;;;;14.80;4.50;;;;;;;2.38;64.88;100999.89;25161;1313;3071487;-68
2022/03/22 03:49:53;;;;;;;18.10;4.30;;;;;;;2.38;64.99;100999.20;25151;1313;3026226;-68
2022/03/22 03:52:34;;;;;;;11.00;3.90;;;;;;;2.34;65.19;101004.40;25186;1313;3026670;-66
2022/03/22 03:55:05;;;;;;;17.80;4.20;;;;;;;2.31;65.39;101001.46;25151;1313;3050999;-68
2022/03/22 03:57:36;;;;;;;14.30;4.00;;;;;;;2.32;65.32;101002.67;25175;1313;3026337;-68
2022/03/22 04:00:08;;;;;;;13.40;4.60;;;;;;;2.33;64.87;101004.39;25121;1313;3052278;-69
2022/03/22 04:02:44;;;;;;;12.10;3.80;;;;;;;2.25;65.71;101006.15;25145;1313;3057082;-69
2022/03/22 04:05:13;;;;;;;17.80;3.80;;;;;;;2.29;65.24;101012.71;25147;1313;3026336;-68
2022/03/22 04:07:43;;;;;;;16.60;5.10;;;;;;;2.30;65.43;101013.73;25139;1313;3026246;-66
2022/03/22 04:10:12;;;;;;;13.80;3.70;;;;;;;2.31;65.30;101019.27;25148;1313;3026881;-65
2022/03/22 04:12:43;;;;;;;12.50;3.50;;;;;;;2.33;65.19;101022.73;25181;1316;3053148;-69
2022/03/22 04:15:13;;;;;;;11.80;3.40;;;;;;;2.35;65.02;101026.70;25103;1313;3026116;-65
2022/03/22 04:17:43;;;;;;;13.80;4.10;;;;;;;2.34;65.35;101029.81;25118;1313;3026704;-68
2022/03/22 04:20:13;;;;;;;16.00;3.70;;;;;;;2.33;65.69;101032.07;25152;1313;3027143;-69
2022/03/22 04:22:42;;;;;;;14.70;4.30;;;;;;;2.37;65.48;101031.89;25116;1313;3026669;-71
2022/03/22 04:25:12;;;;;;;13.20;3.60;;;;;;;2.43;64.79;101038.10;25177;1313;3027013;-69
2022/03/22 04:33:18;;;;;;;14.80;4.10;;;;;;;2.35;65.83;101050.39;25147;1312;3059450;-70
2022/03/22 04:35:47;;;;;;;14.30;4.20;;;;;;;2.34;65.91;101051.78;25148;1312;3029399;-64
2022/03/22 04:38:17;;;;;;;14.00;4.30;;;;;;;2.37;65.93;101049.70;25150;1312;3026650;-69
2022/03/22 04:40:47;;;;;;;20.40;5.20;;;;;;;2.38;65.79;101051.95;25153;1313;3027192;-64
2022/03/22 04:43:15;;;;;;;12.80;4.40;;;;;;;2.42;65.82;101050.38;25115;1312;3028838;-71
2022/03/22 04:45:44;;;;;;;11.70;4.10;;;;;;;2.46;65.61;101051.94;25224;1313;3054709;-70
2022/03/22 04:48:14;;;;;;;16.20;4.30;;;;;;;2.49;65.45;101058.33;25151;1313;3026674;-67
2022/03/22 04:50:45;;;;;;;9.70;3.80;;;;;;;2.51;65.47;101057.45;25141;1313;3048820;-73
2022/03/22 04:58:52;;;;;;;14.50;4.30;;;;;;;2.60;65.06;101063.67;25103;1313;3052325;-67
2022/03/22 05:01:21;;;;;;;12.50;4.50;;;;;;;2.54;65.80;101064.54;25115;1313;3027140;-68
2022/03/22 05:03:50;;;;;;;16.10;4.80;;;;;;;2.58;65.77;101067.30;25215;1313;3026944;-67
2022/03/22 05:06:25;;;;;;;18.30;4.90;;;;;;;2.69;65.17;101073.33;25116;1313;3052292;-73
2022/03/22 05:08:54;;;;;;;15.70;4.90;;;;;;;2.68;65.34;101076.44;25173;1313;3052543;-66
2022/03/22 05:11:24;;;;;;;18.50;5.70;;;;;;;2.73;65.18;101081.63;25164;1313;3027088;-67
2022/03/22 05:13:56;;;;;;;18.60;4.70;;;;;;;2.77;64.90;101085.60;25108;1313;3029026;-68
2022/03/22 05:16:26;;;;;;;15.00;5.10;;;;;;;2.83;64.60;101086.95;25183;1313;3052390;-70
2022/03/22 05:18:55;;;;;;;14.40;4.80;;;;;;;2.83;64.69;101095.61;25184;1313;3026848;-63
2022/03/22 05:21:24;;;;;;;16.70;4.60;;;;;;;2.88;64.27;101092.49;25175;1313;3051754;-69
2022/03/22 05:23:57;;;;;;;13.90;4.20;;;;;;;2.89;64.20;101088.68;25186;1312;3026608;-70
2022/03/22 05:26:27;;;;;;;19.20;4.50;;;;;;;2.86;64.43;101093.54;25201;1313;3026781;-66
2022/03/22 05:28:58;;;;;;;15.70;4.30;;;;;;;2.95;64.09;101096.11;25185;1313;3026123;-68
2022/03/22 05:31:28;;;;;;;13.10;4.10;;;;;;;3.04;63.66;101102.47;25201;1313;3026580;-66
2022/03/22 05:33:58;;;;;;;12.90;4.30;;;;;;;2.98;64.08;101096.61;25178;1313;3026533;-65
2022/03/22 05:36:27;;;;;;;16.20;5.00;;;;;;;3.09;63.44;101098.48;25179;1313;3067425;-66
2022/03/22 05:38:56;;;;;;;16.50;4.20;;;;;;;3.13;63.41;101109.20;25181;1313;3026728;-64
2022/03/22 05:41:25;;;;;;;13.60;4.50;;;;;;;3.14;63.36;101112.48;25156;1313;3050379;-67
2022/03/22 05:43:55;;;;;;;19.10;5.40;;;;;;;3.11;63.50;101114.92;25218;1313;3026592;-68
2022/03/22 05:46:24;;;;;;;12.50;4.30;;;;;;;3.11;63.36;101116.65;25097;1313;3054034;-72
2022/03/22 05:48:54;;;;;;;15.80;5.20;;;;;;;3.12;63.42;101125.30;25167;1313;3026543;-67
2022/03/22 05:51:23;;;;;;;17.50;5.10;;;;;;;3.20;63.34;101122.34;25128;1313;3026369;-67
2022/03/22 05:53:52;;;;;;;13.30;4.90;;;;;;;3.29;62.93;101129.92;25141;1313;3053807;-65
2022/03/22 05:56:21;;;;;;;12.30;4.70;;;;;;;3.35;62.66;101128.69;25133;1313;3027235;-70
2022/03/22 05:58:50;;;;;;;14.50;5.40;;;;;;;3.44;62.61;101136.27;25209;1313;3027813;-69
2022/03/22 06:01:20;;;;;;;16.40;4.60;;;;;;;3.48;62.33;101136.23;25212;1316;3055653;-68
2022/03/22 06:03:50;;;;;;;16.00;4.90;;;;;;;3.56;62.15;101135.17;25286;1313;3026801;-71
2022/03/22 06:06:19;;;;;;;15.60;5.00;;;;;;;3.57;62.51;101140.55;25210;1313;3049619;-67
2022/03/22 06:08:49;;;;;;;15.10;4.40;;;;;;;3.68;61.87;101142.90;25175;1313;3026886;-67
2022/03/22 06:11:19;;;;;;;17.80;4.90;;;;;;;3.72;61.98;101145.13;25190;1313;3027425;-68
2022/03/22 06:13:50;;;;;;;21.20;5.00;;;;;;;3.74;62.08;101149.30;25136;1316;3027341;-70
2022/03/22 06:16:19;;;;;;;15.50;4.70;;;;;;;3.82;61.80;101150.80;25166;1313;3026543;-64
2022/03/22 06:18:48;;;;;;;15.70;5.00;;;;;;;3.91;61.93;101149.89;25182;1313;3051816;-68
2022/03/22 06:21:17;;;;;;;18.60;4.90;;;;;;;3.94;61.56;101157.66;25138;1313;3028743;-70
2022/03/22 06:23:47;;;;;;;18.00;5.20;;;;;;;4.11;61.08;101163.79;25171;1313;3051688;-74
2022/03/22 06:26:16;;;;;;;12.00;4.70;;;;;;;4.19;60.93;101162.35;25179;1315;3027093;-67
2022/03/22 06:28:48;;;;;;;19.10;4.80;;;;;;;4.27;60.68;101163.85;25150;1313;3026304;-68
2022/03/22 06:31:17;;;;;;;12.80;4.20;;;;;;;4.30;60.58;101167.64;25141;1313;3026441;-68
2022/03/22 06:33:46;;;;;;;14.50;4.70;;;;;;;4.41;60.04;101170.33;25191;1312;3026785;-66
2022/03/22 06:36:16;;;;;;;18.40;5.10;;;;;;;4.57;59.48;101166.91;25182;1313;3070886;-72
2022/03/22 06:38:45;;;;;;;13.30;4.90;;;;;;;4.69;59.23;101166.11;25124;1313;3027149;-68
2022/03/22 06:41:14;;;;;;;12.10;4.10;;;;;;;4.74;58.94;101172.14;25181;1313;3026839;-71
2022/03/22 06:43:43;;;;;;;23.30;4.90;;;;;;;4.84;58.75;101179.16;25132;1313;3070349;-67
2022/03/22 06:46:12;;;;;;;17.40;4.80;;;;;;;4.93;58.07;101181.33;25195;1313;3026679;-68
2022/03/22 06:48:42;;;;;;;12.20;3.90;;;;;;;5.00;57.69;101177.96;25187;1313;3050574;-67
2022/03/22 06:51:11;;;;;;;12.20;4.50;;;;;;;5.12;57.41;101183.05;25162;1313;3027320;-67
2022/03/22 06:53:42;;;;;;;14.20;4.60;;;;;;;5.26;57.30;101186.38;25184;1313;3056157;-67
2022/03/22 06:56:13;;;;;;;15.90;4.60;;;;;;;5.38;56.82;101185.55;25211;1313;3026144;-69
2022/03/22 06:58:42;;;;;;;15.50;4.50;;;;;;;5.45;56.46;101183.02;25198;1313;3027286;-69
2022/03/22 07:01:12;;;;;;;14.90;4.60;;;;;;;5.54;56.00;101193.00;25187;1313;3028831;-70
2022/03/22 07:03:41;;;;;;;16.50;4.00;;;;;;;5.63;55.58;101194.81;25139;1313;3028531;-67
2022/03/22 07:06:10;;;;;;;15.60;3.70;;;;;;;5.74;55.40;101189.45;25241;1316;3026936;-68
2022/03/22 07:08:39;;;;;;;14.20;4.30;;;;;;;5.79;54.33;101190.59;25129;1313;3027702;-68
2022/03/22 07:14:05;;;;;;;15.00;4.60;;;;;;;5.85;53.61;101201.46;25127;1313;3054884;-69
2022/03/22 07:16:36;;;;;;;12.40;4.60;;;;;;;5.92;53.48;101198.44;25197;1313;3026514;-73
2022/03/22 07:19:05;;;;;;;12.10;4.10;;;;;;;6.10;52.30;101196.99;25179;1313;3052483;-68
2022/03/22 07:21:34;;;;;;;12.90;3.60;;;;;;;6.22;51.96;101197.52;25189;1312;3026621;-68
2022/03/22 07:24:04;;;;;;;13.00;3.60;;;;;;;6.26;51.24;101200.05;25132;1313;3029332;-71
2022/03/22 07:26:33;;;;;;;14.80;3.60;;;;;;;6.30;51.13;101201.90;25144;1313;3054178;-71
2022/03/22 07:29:02;;;;;;;18.30;4.20;;;;;;;6.32;50.73;101199.45;25232;1313;3028083;-70
2022/03/22 07:31:38;;;;;;;11.50;3.20;;;;;;;6.41;50.28;101205.93;25164;1316;3051650;-73
2022/03/22 07:34:12;;;;;;;13.40;3.20;;;;;;;6.53;49.88;101205.02;25166;1312;3051404;-72
2022/03/22 07:36:43;;;;;;;7.30;3.40;;;;;;;6.62;49.75;101198.63;25186;1313;3053213;-69
2022/03/22 07:39:13;;;;;;;10.30;3.00;;;;;;;6.68;49.67;101208.96;25169;1313;3027027;-68
2022/03/22 07:41:43;;;;;;;11.70;3.60;;;;;;;6.75;49.33;101205.73;25144;1312;3028120;-71
2022/03/22 07:44:15;;;;;;;15.90;3.50;;;;;;;6.91;48.95;101198.83;25150;1313;3027383;-70
2022/03/22 07:46:44;;;;;;;11.00;3.30;;;;;;;6.97;48.66;101199.41;25146;1312;3026177;-67
2022/03/22 07:54:56;;;;;;;10.70;2.80;;;;;;;7.18;47.36;101206.36;25182;1313;3055082;-69
2022/03/22 07:57:25;;;;;;;14.30;3.70;;;;;;;7.28;47.65;101202.66;25159;1312;3026178;-73
2022/03/22 07:59:54;;;;;;;11.90;2.70;;;;;;;7.34;46.70;101210.56;25154;1312;3049145;-69
2022/03/22 08:02:23;;;;;;;11.70;2.60;;;;;;;7.44;47.03;101210.20;25143;1313;3026675;-68
2022/03/22 08:04:53;;;;;;;14.20;3.70;;;;;;;7.57;46.77;101214.99;25130;1312;3070708;-70
2022/03/22 08:07:22;;;;;;;11.90;3.00;;;;;;;7.67;46.66;101207.48;25198;1313;3026638;-68
2022/03/22 08:09:51;;;;;;;9.20;2.60;;;;;;;7.77;45.47;101205.88;25126;1312;3049906;-71
2022/03/22 08:12:41;;;;;;;9.40;2.20;;;;;;;7.80;44.52;101209.98;25192;1313;3071368;-72
2022/03/22 08:15:10;;;;;;;8.70;2.20;;;;;;;7.90;44.34;101211.53;25159;1312;3026490;-71
2022/03/22 08:17:39;;;;;;;13.70;4.40;;;;;;;8.00;44.52;101211.67;25164;1313;3026559;-69
2022/03/22 08:20:09;;;;;;;6.70;1.90;;;;;;;8.06;43.91;101213.45;25234;1313;3070420;-69
2022/03/22 08:22:50;;;;;;;7.00;2.00;;;;;;;8.19;43.89;101218.05;25182;1313;3026459;-68
2022/03/22 08:25:27;;;;;;;15.90;2.20;;;;;;;8.23;43.18;101220.91;25177;1313;3052161;-70
2022/03/22 08:27:59;;;;;;;8.00;2.00;;;;;;;8.26;42.75;101214.41;25193;1313;3054842;-70
2022/03/22 08:30:28;;;;;;;7.30;2.30;;;;;;;8.33;42.58;101210.55;25155;1313;3027435;-67
2022/03/22 08:32:59;;;;;;;6.40;1.80;;;;;;;8.36;42.30;101208.73;25145;1313;3026455;-69
2022/03/22 08:35:28;;;;;;;6.60;1.90;;;;;;;8.41;41.92;101216.84;25181;1312;3052903;-68
2022/03/22 08:37:57;;;;;;;10.20;2.10;;;;;;;8.53;42.21;101215.53;25142;1313;3026285;-72
2022/03/22 08:40:26;;;;;;;5.90;1.80;;;;;;;8.64;41.94;101211.58;25166;1312;3051951;-68
2022/03/22 08:42:55;;;;;;;11.20;3.20;;;;;;;8.63;41.17;101216.16;25177;1313;3026476;-66
2022/03/22 08:45:26;;;;;;;10.20;2.00;;;;;;;8.62;41.13;101213.05;25179;1313;3048449;-71
2022/03/22 08:47:55;;;;;;;11.90;2.20;;;;;;;8.74;41.15;101208.36;25191;1313;3026539;-67
2022/03/22 08:50:25;;;;;;;9.30;2.30;;;;;;;8.83;40.76;101211.29;25157;1313;3026744;-70
2022/03/22 08:52:56;;;;;;;9.60;2.10;;;;;;;8.97;40.67;101205.17;25190;1311;3026124;-66
2022/03/22 08:55:25;;;;;;;6.00;1.90;;;;;;;8.98;39.56;101204.44;25167;1311;3056510;-70
2022/03/22 08:57:55;;;;;;;7.60;2.10;;;;;;;9.11;39.19;101211.27;25182;1313;3026322;-66
2022/03/22 09:00:25;;;;;;;4.70;1.90;;;;;;;9.20;38.85;101212.44;25182;1312;3027082;-68
2022/03/22 09:02:55;;;;;;;6.70;1.60;;;;;;;9.27;38.38;101203.66;25155;1313;3026641;-69
2022/03/22 09:08:11;;;;;;;11.60;1.60;;;;;;;9.38;36.69;101197.94;25165;1313;3052372;-70
2022/03/22 09:10:41;;;;;;;6.10;1.80;;;;;;;9.49;36.18;101195.70;25171;1313;3026218;-67
2022/03/22 09:13:10;;;;;;;6.60;1.70;;;;;;;9.55;35.68;101198.52;25156;1313;3055912;-69
2022/03/22 09:15:39;;;;;;;4.70;1.50;;;;;;;9.69;35.85;101200.38;25117;1312;3029850;-73
2022/03/22 09:18:14;;;;;;;4.10;1.40;;;;;;;9.73;35.03;101196.42;25172;1311;3052425;-67
2022/03/22 09:20:44;;;;;;;4.90;1.60;;;;;;;9.79;35.20;101195.54;25166;1313;3052757;-69
2022/03/22 09:23:13;;;;;;;5.30;1.50;;;;;;;9.68;35.18;101193.92;25137;1313;3028824;-67
2022/03/22 09:25:43;;;;;;;6.50;2.00;;;;;;;9.73;35.44;101199.03;25139;1313;3026834;-71
2022/03/22 09:28:12;;;;;;;8.70;2.40;;;;;;;9.79;35.62;101196.06;25179;1313;3026452;-68
2022/03/22 09:30:42;;;;;;;9.00;1.50;;;;;;;10.06;34.69;101193.13;25164;1313;3026237;-69
2022/03/22 09:33:12;;;;;;;9.90;1.40;;;;;;;10.17;32.91;101196.15;25156;1313;3070754;-70
2022/03/22 09:35:42;;;;;;;12.00;1.60;;;;;;;10.20;31.72;101192.17;25165;1313;3026436;-66
2022/03/22 09:38:11;;;;;;;6.10;1.70;;;;;;;10.16;31.70;101191.10;25135;1313;3053752;-69
2022/03/22 09:40:40;;;;;;;6.60;1.70;;;;;;;10.09;31.40;101195.16;25166;1313;3026680;-70
2022/03/22 09:43:09;;;;;;;9.10;1.40;;;;;;;10.03;31.40;101204.44;25150;1313;3054845;-65
2022/03/22 09:45:39;;;;;;;8.90;1.50;;;;;;;10.19;31.66;101200.98;25182;1313;3026660;-69
2022/03/22 09:48:08;;;;;;;6.00;1.50;;;;;;;10.42;31.09;101192.58;25138;1316;3027529;-66
2022/03/22 09:53:26;;;;;;;6.50;1.20;;;;;;;10.46;29.81;101184.21;25162;1313;3055535;-67
2022/03/22 09:55:56;;;;;;;5.90;1.60;;;;;;;10.59;30.34;101186.42;25135;1313;3026439;-68
2022/03/22 09:58:25;;;;;;;3.90;1.50;;;;;;;10.70;30.13;101185.35;25168;1313;3030739;-67
2022/03/22 10:00:55;;;;;;;6.10;1.20;;;;;;;10.88;30.36;101182.63;25134;1313;3026450;-70
2022/03/22 10:03:24;;;;;;;6.70;1.60;;;;;;;10.92;30.49;101183.00;25178;1313;3027149;-70
2022/03/22 10:06:01;;;;;;;4.90;1.60;;;;;;;10.99;30.07;101183.31;25154;1313;3058638;-72
2022/03/22 10:08:30;;;;;;;9.30;1.20;;;;;;;10.97;30.11;101184.96;25206;1312;3052907;-71
2022/03/22 10:11:01;;;;;;;4.20;1.20;;;;;;;10.90;30.23;101183.30;25158;1313;3027909;-68
2022/03/22 10:13:33;;;;;;;10.70;1.50;;;;;;;10.90;29.85;101178.89;25183;1313;3059377;-72
2022/03/22 10:16:04;;;;;;;7.30;1.40;;;;;;;10.88;30.34;101187.73;25209;1313;3026757;-68
2022/03/22 10:18:35;;;;;;;5.80;1.70;;;;;;;11.03;30.74;101183.52;25163;1313;3026760;-66
2022/03/22 10:21:04;;;;;;;6.20;1.50;;;;;;;11.30;30.29;101178.87;25173;1313;3026730;-67
2022/03/22 10:23:40;;;;;;;4.30;1.40;;;;;;;11.46;30.01;101173.91;25174;1313;3026822;-66
2022/03/22 10:26:10;;;;;;;4.70;1.50;;;;;;;11.56;29.95;101175.80;25146;1313;3048440;-67
2022/03/22 10:28:51;;;;;;;4.80;1.30;;;;;;;11.50;30.02;101174.96;25197;1313;3026406;-67
2022/03/22 10:31:34;;;;;;;5.70;1.50;;;;;;;11.59;29.85;101168.15;25178;1313;3071351;-66
2022/03/22 10:34:03;;;;;;;7.10;1.50;;;;;;;11.48;29.52;101167.52;25160;1313;3049460;-68
2022/03/22 10:36:37;;;;;;;9.20;1.70;;;;;;;11.35;29.97;101167.12;25130;1313;3026560;-66
2022/03/22 10:39:08;;;;;;;6.10;1.70;;;;;;;11.27;30.10;101165.47;25182;1311;3026790;-69
2022/03/22 10:41:42;;;;;;;9.60;1.60;;;;;;;11.45;30.08;101168.52;25182;1313;3028713;-66
2022/03/22 10:44:15;;;;;;;7.50;1.40;;;;;;;11.56;29.99;101162.85;25131;1313;3050363;-68
2022/03/22 10:46:46;;;;;;;;;;;;;;;11.43;30.09;101161.03;25163;1313;3055199;-69
2022/03/22 10:49:17;;;;;;;5.80;1.40;;;;;;;11.55;30.38;101154.11;25189;1313;3028702;-70
2022/03/22 10:51:48;;;;;;;8.50;1.60;;;;;;;11.85;30.06;101153.48;25208;1313;3026370;-69
2022/03/22 10:54:19;;;;;;;5.30;1.50;;;;;;;11.92;29.48;101151.62;25171;1312;3026611;-67
2022/03/22 10:56:49;;;;;;;8.90;1.70;;;;;;;11.97;28.94;101151.80;25196;1312;3026698;-68
2022/03/22 10:59:21;;;;;;;5.50;1.60;;;;;;;11.99;29.25;101154.39;25145;1313;3026769;-70
2022/03/22 11:01:52;;;;;;;5.60;1.40;;;;;;;12.07;28.93;101146.48;25202;1313;3026607;-67
2022/03/22 11:04:21;;;;;;;5.20;1.60;;;;;;;12.03;28.73;101149.82;25143;1313;3026684;-66
2022/03/22 11:06:51;;;;;;;7.10;1.60;;;;;;;12.18;29.25;101139.75;25200;1312;3028895;-68
2022/03/22 11:09:25;;;;;;;5.00;1.60;;;;;;;12.20;28.87;101143.70;25133;1312;3026386;-68
2022/03/22 11:11:54;;;;;;;7.50;2.00;;;;;;;12.25;29.20;101148.08;25216;1311;3048734;-70
2022/03/22 11:14:26;;;;;;;9.40;1.60;;;;;;;12.19;29.31;101148.48;25210;1313;3027585;-68
2022/03/22 11:16:55;;;;;;;6.50;1.50;;;;;;;12.11;29.48;101143.18;25210;1312;3027030;-62
2022/03/22 11:19:25;;;;;;;4.00;1.30;;;;;;;12.33;29.39;101143.53;25139;1316;3026761;-69
2022/03/22 11:22:03;;;;;;;6.40;2.00;;;;;;;12.41;29.03;101137.92;25171;1313;3028002;-73
2022/03/22 11:24:36;;;;;;;7.30;1.50;;;;;;;12.55;28.67;101137.16;25182;1313;3054041;-72
2022/03/22 11:27:06;;;;;;;5.30;1.60;;;;;;;12.64;27.55;101131.13;25123;1312;3026640;-66
2022/03/22 11:29:38;;;;;;;5.60;1.30;;;;;;;12.64;27.57;101134.67;25152;1313;3026641;-69
2022/03/22 11:34:58;;;;;;;10.60;1.70;;;;;;;12.67;27.86;101137.00;25153;1312;3053627;-64
2022/03/22 11:37:31;;;;;;;5.30;1.50;;;;;;;12.63;27.83;101137.71;25161;1312;3026857;-68
2022/03/22 11:42:53;;;;;;;15.40;1.80;;;;;;;12.72;27.13;101138.55;25119;1312;3055821;-66
2022/03/22 11:45:24;;;;;;;14.20;1.60;;;;;;;12.89;26.87;101138.70;25153;1312;3029430;-68
2022/03/22 11:47:53;;;;;;;7.80;1.80;;;;;;;12.94;27.13;101135.11;25125;1312;3028988;-69
2022/03/22 11:50:23;;;;;;;6.00;1.40;;;;;;;13.07;26.65;101133.49;25167;1312;3028986;-68
2022/03/22 11:52:55;;;;;;;6.40;1.40;;;;;;;13.19;26.62;101124.36;25131;1312;3053868;-66
2022/03/22 11:55:25;;;;;;;6.30;1.30;;;;;;;13.23;26.46;101118.57;25108;1310;3026975;-67
2022/03/22 11:58:03;;;;;;;7.40;1.40;;;;;;;13.33;26.22;101120.41;25207;1312;3029010;-66
2022/03/22 12:00:46;;;;;;;8.60;1.50;;;;;;;13.17;26.12;101124.27;25160;1313;3052019;-66
2022/03/22 12:03:16;;;;;;;5.20;1.30;;;;;;;13.19;26.57;101121.90;25162;1313;3053370;-66
2022/03/22 12:05:45;;;;;;;2.90;1.20;;;;;;;13.11;26.24;101126.67;25095;1312;3026486;-66